sensor_id;sensor_type;location;lat;lon;timestamp;P1;durP1;ratioP1;P2;durP2;ratioP2
34499;SDS011;20745;50.882;6.962;2023-02-20T00:01:48;19.17;;;7.20;;
34499;SDS011;20745;50.882;6.962;2023-02-20T00:04:17;15.10;;;5.90;;
34499;SDS011;20745;50.882;6.962;2023-02-20T00:06:43;18.30;;;7.05;;
34499;SDS011;20745;50.882;6.962;2023-02-20T00:09:10;19.02;;;6.78;;
34499;SDS011;20745;50.882;6.962;2023-02-20T00:11:37;19.85;;;7.70;;
34499;SDS011;20745;50.882;6.962;2023-02-20T00:14:04;20.70;;;7.70;;
34499;SDS011;20745;50.882;6.962;2023-02-20T00:16:30;20.23;;;7.70;;
34499;SDS011;20745;50.882;6.962;2023-02-20T00:18:57;20.50;;;8.43;;
34499;SDS011;20745;50.882;6.962;2023-02-20T00:21:24;21.35;;;8.68;;
34499;SDS011;20745;50.882;6.962;2023-02-20T00:23:50;19.58;;;8.05;;
34499;SDS011;20745;50.882;6.962;2023-02-20T00:26:17;19.58;;;7.75;;
34499;SDS011;20745;50.882;6.962;2023-02-20T00:28:43;18.60;;;7.55;;
34499;SDS011;20745;50.882;6.962;2023-02-20T00:31:11;22.52;;;8.45;;
34499;SDS011;20745;50.882;6.962;2023-02-20T00:33:40;18.80;;;7.90;;
34499;SDS011;20745;50.882;6.962;2023-02-20T00:36:07;19.17;;;7.53;;
34499;SDS011;20745;50.882;6.962;2023-02-20T00:38:40;20.15;;;7.65;;
34499;SDS011;20745;50.882;6.962;2023-02-20T00:41:07;22.52;;;8.95;;
34499;SDS011;20745;50.882;6.962;2023-02-20T00:43:40;20.88;;;8.38;;
34499;SDS011;20745;50.882;6.962;2023-02-20T00:46:09;21.23;;;8.90;;
34499;SDS011;20745;50.882;6.962;2023-02-20T00:48:37;22.70;;;9.60;;
34499;SDS011;20745;50.882;6.962;2023-02-20T00:51:04;22.90;;;9.68;;
34499;SDS011;20745;50.882;6.962;2023-02-20T00:53:30;20.52;;;8.43;;
34499;SDS011;20745;50.882;6.962;2023-02-20T00:55:57;23.75;;;9.95;;
34499;SDS011;20745;50.882;6.962;2023-02-20T00:58:23;25.08;;;9.93;;
34499;SDS011;20745;50.882;6.962;2023-02-20T01:00:50;24.13;;;10.70;;
34499;SDS011;20745;50.882;6.962;2023-02-20T01:03:16;23.35;;;10.23;;
34499;SDS011;20745;50.882;6.962;2023-02-20T01:05:43;24.08;;;9.73;;
34499;SDS011;20745;50.882;6.962;2023-02-20T01:08:09;25.83;;;10.75;;
34499;SDS011;20745;50.882;6.962;2023-02-20T01:10:36;24.48;;;9.75;;
34499;SDS011;20745;50.882;6.962;2023-02-20T01:13:02;25.45;;;9.65;;
34499;SDS011;20745;50.882;6.962;2023-02-20T01:15:29;23.63;;;9.95;;
34499;SDS011;20745;50.882;6.962;2023-02-20T01:17:56;24.30;;;9.35;;
34499;SDS011;20745;50.882;6.962;2023-02-20T01:20:23;24.02;;;9.73;;
34499;SDS011;20745;50.882;6.962;2023-02-20T01:22:50;22.92;;;8.95;;
34499;SDS011;20745;50.882;6.962;2023-02-20T01:25:16;23.75;;;8.85;;
34499;SDS011;20745;50.882;6.962;2023-02-20T01:27:43;24.15;;;9.00;;
34499;SDS011;20745;50.882;6.962;2023-02-20T01:30:09;22.73;;;9.27;;
34499;SDS011;20745;50.882;6.962;2023-02-20T01:32:36;21.65;;;9.43;;
34499;SDS011;20745;50.882;6.962;2023-02-20T01:35:03;20.98;;;9.30;;
34499;SDS011;20745;50.882;6.962;2023-02-20T01:37:29;22.45;;;9.05;;
34499;SDS011;20745;50.882;6.962;2023-02-20T01:39:56;22.30;;;9.38;;
34499;SDS011;20745;50.882;6.962;2023-02-20T01:42:23;21.75;;;8.50;;
34499;SDS011;20745;50.882;6.962;2023-02-20T01:44:53;24.08;;;9.73;;
34499;SDS011;20745;50.882;6.962;2023-02-20T01:47:20;20.30;;;8.23;;
34499;SDS011;20745;50.882;6.962;2023-02-20T01:49:50;21.27;;;9.27;;
34499;SDS011;20745;50.882;6.962;2023-02-20T01:52:24;20.55;;;8.98;;
34499;SDS011;20745;50.882;6.962;2023-02-20T01:55:01;24.58;;;9.55;;
34499;SDS011;20745;50.882;6.962;2023-02-20T01:57:34;22.67;;;9.82;;
34499;SDS011;20745;50.882;6.962;2023-02-20T02:00:05;22.55;;;9.55;;
34499;SDS011;20745;50.882;6.962;2023-02-20T02:02:40;21.23;;;8.40;;
34499;SDS011;20745;50.882;6.962;2023-02-20T02:05:11;21.30;;;9.27;;
34499;SDS011;20745;50.882;6.962;2023-02-20T02:07:38;22.73;;;9.55;;
34499;SDS011;20745;50.882;6.962;2023-02-20T02:10:19;26.27;;;10.52;;
34499;SDS011;20745;50.882;6.962;2023-02-20T02:12:51;20.65;;;9.45;;
34499;SDS011;20745;50.882;6.962;2023-02-20T02:15:20;20.25;;;9.15;;
34499;SDS011;20745;50.882;6.962;2023-02-20T02:18:03;21.63;;;9.98;;
34499;SDS011;20745;50.882;6.962;2023-02-20T02:40:51;22.77;;;8.15;;
34499;SDS011;20745;50.882;6.962;2023-02-20T02:43:33;22.02;;;7.80;;
34499;SDS011;20745;50.882;6.962;2023-02-20T02:46:20;20.48;;;7.88;;
34499;SDS011;20745;50.882;6.962;2023-02-20T02:49:10;24.83;;;7.75;;
34499;SDS011;20745;50.882;6.962;2023-02-20T02:51:38;20.48;;;9.38;;
34499;SDS011;20745;50.882;6.962;2023-02-20T02:56:38;19.50;;;7.93;;
34499;SDS011;20745;50.882;6.962;2023-02-20T02:59:08;19.42;;;7.15;;
34499;SDS011;20745;50.882;6.962;2023-02-20T03:01:38;17.48;;;7.10;;
34499;SDS011;20745;50.882;6.962;2023-02-20T03:04:15;17.50;;;7.32;;
34499;SDS011;20745;50.882;6.962;2023-02-20T03:06:50;18.33;;;7.28;;
34499;SDS011;20745;50.882;6.962;2023-02-20T03:09:21;24.23;;;7.53;;
34499;SDS011;20745;50.882;6.962;2023-02-20T03:11:54;19.45;;;7.80;;
34499;SDS011;20745;50.882;6.962;2023-02-20T03:14:34;18.17;;;7.47;;
34499;SDS011;20745;50.882;6.962;2023-02-20T03:17:29;15.95;;;5.97;;
34499;SDS011;20745;50.882;6.962;2023-02-20T03:20:02;18.15;;;7.00;;
34499;SDS011;20745;50.882;6.962;2023-02-20T03:22:37;17.52;;;6.90;;
34499;SDS011;20745;50.882;6.962;2023-02-20T03:25:09;20.75;;;6.60;;
34499;SDS011;20745;50.882;6.962;2023-02-20T03:30:32;17.45;;;6.55;;
34499;SDS011;20745;50.882;6.962;2023-02-20T03:33:07;16.52;;;6.80;;
34499;SDS011;20745;50.882;6.962;2023-02-20T03:36:00;21.75;;;6.80;;
34499;SDS011;20745;50.882;6.962;2023-02-20T03:38:49;22.27;;;7.00;;
34499;SDS011;20745;50.882;6.962;2023-02-20T03:41:43;19.63;;;7.10;;
34499;SDS011;20745;50.882;6.962;2023-02-20T03:44:31;15.48;;;6.47;;
34499;SDS011;20745;50.882;6.962;2023-02-20T03:46:59;20.23;;;7.17;;
34499;SDS011;20745;50.882;6.962;2023-02-20T03:49:32;22.25;;;7.90;;
34499;SDS011;20745;50.882;6.962;2023-02-20T03:52:21;17.58;;;6.97;;
34499;SDS011;20745;50.882;6.962;2023-02-20T03:54:48;19.35;;;6.68;;
34499;SDS011;20745;50.882;6.962;2023-02-20T03:57:20;19.35;;;7.50;;
34499;SDS011;20745;50.882;6.962;2023-02-20T03:59:53;19.20;;;6.85;;
34499;SDS011;20745;50.882;6.962;2023-02-20T04:02:25;17.98;;;7.20;;
34499;SDS011;20745;50.882;6.962;2023-02-20T04:04:56;20.38;;;7.93;;
34499;SDS011;20745;50.882;6.962;2023-02-20T04:07:39;20.65;;;8.18;;
34499;SDS011;20745;50.882;6.962;2023-02-20T04:10:13;23.73;;;7.82;;
34499;SDS011;20745;50.882;6.962;2023-02-20T04:12:45;19.75;;;8.05;;
34499;SDS011;20745;50.882;6.962;2023-02-20T04:15:14;22.52;;;8.32;;
34499;SDS011;20745;50.882;6.962;2023-02-20T04:17:46;20.50;;;8.50;;
34499;SDS011;20745;50.882;6.962;2023-02-20T04:20:20;19.00;;;7.20;;
34499;SDS011;20745;50.882;6.962;2023-02-20T04:22:47;23.98;;;8.90;;
34499;SDS011;20745;50.882;6.962;2023-02-20T04:25:20;22.65;;;7.93;;
34499;SDS011;20745;50.882;6.962;2023-02-20T04:28:01;22.58;;;8.57;;
34499;SDS011;20745;50.882;6.962;2023-02-20T04:30:28;24.97;;;8.50;;
34499;SDS011;20745;50.882;6.962;2023-02-20T04:32:55;22.70;;;8.23;;
34499;SDS011;20745;50.882;6.962;2023-02-20T04:35:22;24.40;;;7.88;;
34499;SDS011;20745;50.882;6.962;2023-02-20T04:37:49;23.77;;;7.60;;
34499;SDS011;20745;50.882;6.962;2023-02-20T04:40:17;28.67;;;8.30;;
34499;SDS011;20745;50.882;6.962;2023-02-20T04:42:45;20.33;;;7.53;;
34499;SDS011;20745;50.882;6.962;2023-02-20T04:45:12;21.98;;;7.65;;
34499;SDS011;20745;50.882;6.962;2023-02-20T04:47:38;22.10;;;8.55;;
34499;SDS011;20745;50.882;6.962;2023-02-20T04:50:05;18.92;;;7.95;;
34499;SDS011;20745;50.882;6.962;2023-02-20T04:52:31;22.75;;;7.47;;
34499;SDS011;20745;50.882;6.962;2023-02-20T04:54:58;19.30;;;7.18;;
34499;SDS011;20745;50.882;6.962;2023-02-20T04:57:24;20.50;;;7.20;;
34499;SDS011;20745;50.882;6.962;2023-02-20T04:59:51;21.75;;;8.13;;
34499;SDS011;20745;50.882;6.962;2023-02-20T05:02:17;20.65;;;7.35;;
34499;SDS011;20745;50.882;6.962;2023-02-20T05:04:44;20.40;;;8.27;;
34499;SDS011;20745;50.882;6.962;2023-02-20T05:07:10;22.20;;;8.07;;
34499;SDS011;20745;50.882;6.962;2023-02-20T05:09:36;20.38;;;7.97;;
34499;SDS011;20745;50.882;6.962;2023-02-20T05:12:03;19.15;;;7.20;;
34499;SDS011;20745;50.882;6.962;2023-02-20T05:14:29;18.15;;;7.72;;
34499;SDS011;20745;50.882;6.962;2023-02-20T05:16:56;20.60;;;7.82;;
34499;SDS011;20745;50.882;6.962;2023-02-20T05:19:23;23.17;;;8.15;;
34499;SDS011;20745;50.882;6.962;2023-02-20T05:21:49;24.15;;;8.45;;
34499;SDS011;20745;50.882;6.962;2023-02-20T05:24:34;21.23;;;8.07;;
34499;SDS011;20745;50.882;6.962;2023-02-20T05:27:01;22.27;;;7.90;;
34499;SDS011;20745;50.882;6.962;2023-02-20T05:29:27;19.60;;;7.53;;
34499;SDS011;20745;50.882;6.962;2023-02-20T05:31:54;23.42;;;8.13;;
34499;SDS011;20745;50.882;6.962;2023-02-20T05:34:20;18.95;;;7.30;;
34499;SDS011;20745;50.882;6.962;2023-02-20T05:36:47;21.75;;;7.93;;
34499;SDS011;20745;50.882;6.962;2023-02-20T05:39:14;22.17;;;8.32;;
34499;SDS011;20745;50.882;6.962;2023-02-20T05:41:40;19.75;;;7.90;;
34499;SDS011;20745;50.882;6.962;2023-02-20T05:44:08;19.45;;;7.45;;
34499;SDS011;20745;50.882;6.962;2023-02-20T05:46:37;22.63;;;7.75;;
34499;SDS011;20745;50.882;6.962;2023-02-20T05:49:06;20.02;;;8.15;;
34499;SDS011;20745;50.882;6.962;2023-02-20T05:51:33;20.88;;;7.93;;
34499;SDS011;20745;50.882;6.962;2023-02-20T05:53:59;21.33;;;7.70;;
34499;SDS011;20745;50.882;6.962;2023-02-20T05:56:26;23.48;;;7.95;;
34499;SDS011;20745;50.882;6.962;2023-02-20T05:58:52;21.48;;;7.60;;
34499;SDS011;20745;50.882;6.962;2023-02-20T06:01:26;21.42;;;7.72;;
34499;SDS011;20745;50.882;6.962;2023-02-20T06:03:54;24.55;;;8.00;;
34499;SDS011;20745;50.882;6.962;2023-02-20T06:06:21;21.17;;;8.13;;
34499;SDS011;20745;50.882;6.962;2023-02-20T06:08:47;23.65;;;8.05;;
34499;SDS011;20745;50.882;6.962;2023-02-20T06:11:14;22.08;;;8.60;;
34499;SDS011;20745;50.882;6.962;2023-02-20T06:13:42;23.88;;;9.10;;
34499;SDS011;20745;50.882;6.962;2023-02-20T06:16:09;23.85;;;8.68;;
34499;SDS011;20745;50.882;6.962;2023-02-20T06:18:37;23.85;;;8.45;;
34499;SDS011;20745;50.882;6.962;2023-02-20T06:21:08;22.55;;;8.43;;
34499;SDS011;20745;50.882;6.962;2023-02-20T06:23:38;23.35;;;8.70;;
34499;SDS011;20745;50.882;6.962;2023-02-20T06:26:05;24.75;;;9.80;;
34499;SDS011;20745;50.882;6.962;2023-02-20T06:28:32;27.02;;;9.63;;
34499;SDS011;20745;50.882;6.962;2023-02-20T06:30:59;22.88;;;8.93;;
34499;SDS011;20745;50.882;6.962;2023-02-20T06:33:27;21.15;;;8.48;;
34499;SDS011;20745;50.882;6.962;2023-02-20T06:35:54;24.38;;;9.43;;
34499;SDS011;20745;50.882;6.962;2023-02-20T06:38:21;23.45;;;8.98;;
34499;SDS011;20745;50.882;6.962;2023-02-20T06:40:48;22.67;;;8.77;;
34499;SDS011;20745;50.882;6.962;2023-02-20T06:43:14;21.70;;;9.15;;
34499;SDS011;20745;50.882;6.962;2023-02-20T06:45:41;21.48;;;9.27;;
34499;SDS011;20745;50.882;6.962;2023-02-20T06:48:07;19.88;;;7.88;;
34499;SDS011;20745;50.882;6.962;2023-02-20T06:50:34;22.30;;;8.65;;
34499;SDS011;20745;50.882;6.962;2023-02-20T06:53:00;24.02;;;9.20;;
34499;SDS011;20745;50.882;6.962;2023-02-20T06:55:27;24.55;;;9.45;;
34499;SDS011;20745;50.882;6.962;2023-02-20T06:57:53;23.65;;;9.98;;
34499;SDS011;20745;50.882;6.962;2023-02-20T07:00:20;24.25;;;10.00;;
34499;SDS011;20745;50.882;6.962;2023-02-20T07:02:47;22.80;;;9.50;;
34499;SDS011;20745;50.882;6.962;2023-02-20T07:05:13;25.02;;;9.27;;
34499;SDS011;20745;50.882;6.962;2023-02-20T07:07:40;26.98;;;10.15;;
34499;SDS011;20745;50.882;6.962;2023-02-20T07:10:06;27.38;;;9.13;;
34499;SDS011;20745;50.882;6.962;2023-02-20T07:12:33;26.40;;;10.45;;
34499;SDS011;20745;50.882;6.962;2023-02-20T07:15:04;23.23;;;9.52;;
34499;SDS011;20745;50.882;6.962;2023-02-20T07:17:31;21.85;;;8.95;;
34499;SDS011;20745;50.882;6.962;2023-02-20T07:19:58;24.50;;;10.27;;
34499;SDS011;20745;50.882;6.962;2023-02-20T07:22:25;23.13;;;8.98;;
34499;SDS011;20745;50.882;6.962;2023-02-20T07:24:51;27.73;;;10.35;;
34499;SDS011;20745;50.882;6.962;2023-02-20T07:27:19;22.98;;;9.70;;
34499;SDS011;20745;50.882;6.962;2023-02-20T07:29:47;25.77;;;9.60;;
34499;SDS011;20745;50.882;6.962;2023-02-20T07:32:15;24.05;;;9.85;;
34499;SDS011;20745;50.882;6.962;2023-02-20T07:34:46;24.38;;;9.27;;
34499;SDS011;20745;50.882;6.962;2023-02-20T07:37:30;25.85;;;9.85;;
34499;SDS011;20745;50.882;6.962;2023-02-20T07:39:57;27.50;;;9.77;;
34499;SDS011;20745;50.882;6.962;2023-02-20T07:42:23;23.52;;;9.50;;
34499;SDS011;20745;50.882;6.962;2023-02-20T07:44:50;25.65;;;9.55;;
34499;SDS011;20745;50.882;6.962;2023-02-20T07:47:17;23.50;;;9.60;;
34499;SDS011;20745;50.882;6.962;2023-02-20T07:49:44;23.73;;;9.82;;
34499;SDS011;20745;50.882;6.962;2023-02-20T07:52:11;24.85;;;9.52;;
34499;SDS011;20745;50.882;6.962;2023-02-20T07:54:37;25.17;;;10.35;;
34499;SDS011;20745;50.882;6.962;2023-02-20T07:57:04;24.90;;;9.95;;
34499;SDS011;20745;50.882;6.962;2023-02-20T07:59:31;26.13;;;9.77;;
34499;SDS011;20745;50.882;6.962;2023-02-20T08:01:57;23.10;;;10.77;;
34499;SDS011;20745;50.882;6.962;2023-02-20T08:04:24;25.75;;;9.73;;
34499;SDS011;20745;50.882;6.962;2023-02-20T08:06:51;24.08;;;10.10;;
34499;SDS011;20745;50.882;6.962;2023-02-20T08:09:17;23.50;;;9.65;;
34499;SDS011;20745;50.882;6.962;2023-02-20T08:11:44;22.77;;;8.93;;
34499;SDS011;20745;50.882;6.962;2023-02-20T08:14:11;25.65;;;9.20;;
34499;SDS011;20745;50.882;6.962;2023-02-20T08:16:39;25.57;;;8.63;;
34499;SDS011;20745;50.882;6.962;2023-02-20T08:19:06;25.15;;;9.82;;
34499;SDS011;20745;50.882;6.962;2023-02-20T08:21:33;23.40;;;9.82;;
34499;SDS011;20745;50.882;6.962;2023-02-20T08:23:59;22.65;;;8.65;;
34499;SDS011;20745;50.882;6.962;2023-02-20T08:26:26;21.70;;;8.90;;
34499;SDS011;20745;50.882;6.962;2023-02-20T08:28:53;20.10;;;8.63;;
34499;SDS011;20745;50.882;6.962;2023-02-20T08:31:19;23.55;;;8.52;;
34499;SDS011;20745;50.882;6.962;2023-02-20T08:33:57;25.27;;;9.00;;
34499;SDS011;20745;50.882;6.962;2023-02-20T08:36:24;22.65;;;8.50;;
34499;SDS011;20745;50.882;6.962;2023-02-20T08:38:51;20.45;;;7.22;;
34499;SDS011;20745;50.882;6.962;2023-02-20T08:41:18;22.05;;;7.32;;
34499;SDS011;20745;50.882;6.962;2023-02-20T08:43:44;20.63;;;7.03;;
34499;SDS011;20745;50.882;6.962;2023-02-20T08:46:11;28.02;;;7.28;;
34499;SDS011;20745;50.882;6.962;2023-02-20T08:48:38;19.08;;;6.30;;
34499;SDS011;20745;50.882;6.962;2023-02-20T08:51:05;17.65;;;6.78;;
34499;SDS011;20745;50.882;6.962;2023-02-20T08:53:33;20.85;;;6.78;;
34499;SDS011;20745;50.882;6.962;2023-02-20T08:56:00;23.70;;;6.57;;
34499;SDS011;20745;50.882;6.962;2023-02-20T08:58:27;19.30;;;7.03;;
34499;SDS011;20745;50.882;6.962;2023-02-20T09:00:54;21.33;;;6.90;;
34499;SDS011;20745;50.882;6.962;2023-02-20T09:03:21;23.05;;;7.57;;
34499;SDS011;20745;50.882;6.962;2023-02-20T09:05:48;17.50;;;7.45;;
34499;SDS011;20745;50.882;6.962;2023-02-20T09:08:15;26.17;;;8.88;;
34499;SDS011;20745;50.882;6.962;2023-02-20T09:10:42;21.73;;;8.23;;
34499;SDS011;20745;50.882;6.962;2023-02-20T09:13:09;20.13;;;7.78;;
34499;SDS011;20745;50.882;6.962;2023-02-20T09:15:36;23.77;;;8.55;;
34499;SDS011;20745;50.882;6.962;2023-02-20T09:18:10;26.10;;;8.20;;
34499;SDS011;20745;50.882;6.962;2023-02-20T09:20:38;23.00;;;9.05;;
34499;SDS011;20745;50.882;6.962;2023-02-20T09:23:05;23.38;;;8.63;;
34499;SDS011;20745;50.882;6.962;2023-02-20T09:25:32;20.98;;;8.57;;
34499;SDS011;20745;50.882;6.962;2023-02-20T09:28:00;20.35;;;8.02;;
34499;SDS011;20745;50.882;6.962;2023-02-20T09:30:26;19.67;;;7.95;;
34499;SDS011;20745;50.882;6.962;2023-02-20T09:32:53;24.10;;;8.82;;
34499;SDS011;20745;50.882;6.962;2023-02-20T09:35:22;22.35;;;8.52;;
34499;SDS011;20745;50.882;6.962;2023-02-20T09:37:51;22.60;;;8.60;;
34499;SDS011;20745;50.882;6.962;2023-02-20T09:40:20;23.77;;;8.52;;
34499;SDS011;20745;50.882;6.962;2023-02-20T09:45:26;22.80;;;9.32;;
34499;SDS011;20745;50.882;6.962;2023-02-20T09:53:01;23.90;;;8.57;;
34499;SDS011;20745;50.882;6.962;2023-02-20T09:55:34;21.50;;;8.13;;
34499;SDS011;20745;50.882;6.962;2023-02-20T09:58:05;22.23;;;8.40;;
34499;SDS011;20745;50.882;6.962;2023-02-20T10:00:42;19.83;;;8.43;;
34499;SDS011;20745;50.882;6.962;2023-02-20T10:03:15;23.75;;;8.43;;
34499;SDS011;20745;50.882;6.962;2023-02-20T10:05:46;20.33;;;8.07;;
34499;SDS011;20745;50.882;6.962;2023-02-20T10:08:18;25.02;;;8.48;;
34499;SDS011;20745;50.882;6.962;2023-02-20T10:10:50;22.55;;;9.13;;
34499;SDS011;20745;50.882;6.962;2023-02-20T10:13:37;21.55;;;8.02;;
34499;SDS011;20745;50.882;6.962;2023-02-20T10:16:23;19.75;;;7.97;;
34499;SDS011;20745;50.882;6.962;2023-02-20T10:22:04;21.05;;;8.38;;
34499;SDS011;20745;50.882;6.962;2023-02-20T10:31:05;20.40;;;8.77;;
34499;SDS011;20745;50.882;6.962;2023-02-20T10:38:49;19.75;;;8.65;;
34499;SDS011;20745;50.882;6.962;2023-02-20T10:41:23;24.15;;;8.73;;
34499;SDS011;20745;50.882;6.962;2023-02-20T10:44:18;21.77;;;8.82;;
34499;SDS011;20745;50.882;6.962;2023-02-20T10:49:24;21.23;;;8.73;;
34499;SDS011;20745;50.882;6.962;2023-02-20T10:52:06;21.73;;;8.93;;
34499;SDS011;20745;50.882;6.962;2023-02-20T10:55:02;20.50;;;9.02;;
34499;SDS011;20745;50.882;6.962;2023-02-20T10:57:47;20.10;;;8.95;;
34499;SDS011;20745;50.882;6.962;2023-02-20T11:00:24;26.58;;;9.75;;
34499;SDS011;20745;50.882;6.962;2023-02-20T11:03:03;22.38;;;9.57;;
34499;SDS011;20745;50.882;6.962;2023-02-20T11:05:34;24.90;;;9.70;;
34499;SDS011;20745;50.882;6.962;2023-02-20T11:08:05;23.08;;;9.35;;
34499;SDS011;20745;50.882;6.962;2023-02-20T11:10:31;24.25;;;10.35;;
34499;SDS011;20745;50.882;6.962;2023-02-20T11:13:00;22.50;;;9.55;;
34499;SDS011;20745;50.882;6.962;2023-02-20T11:15:28;26.27;;;10.40;;
34499;SDS011;20745;50.882;6.962;2023-02-20T11:17:59;25.75;;;10.20;;
34499;SDS011;20745;50.882;6.962;2023-02-20T11:23:01;27.83;;;10.35;;
34499;SDS011;20745;50.882;6.962;2023-02-20T11:25:29;27.13;;;11.48;;
34499;SDS011;20745;50.882;6.962;2023-02-20T11:28:06;25.83;;;10.82;;
34499;SDS011;20745;50.882;6.962;2023-02-20T11:31:02;32.47;;;11.40;;
34499;SDS011;20745;50.882;6.962;2023-02-20T11:33:32;26.85;;;11.57;;
34499;SDS011;20745;50.882;6.962;2023-02-20T11:38:45;24.85;;;10.75;;
34499;SDS011;20745;50.882;6.962;2023-02-20T11:41:27;29.75;;;12.85;;
34499;SDS011;20745;50.882;6.962;2023-02-20T11:44:31;29.27;;;11.88;;
34499;SDS011;20745;50.882;6.962;2023-02-20T11:47:13;25.25;;;11.82;;
34499;SDS011;20745;50.882;6.962;2023-02-20T11:49:47;30.38;;;11.80;;
34499;SDS011;20745;50.882;6.962;2023-02-20T11:52:19;29.25;;;12.35;;
34499;SDS011;20745;50.882;6.962;2023-02-20T11:54:47;26.63;;;11.90;;
34499;SDS011;20745;50.882;6.962;2023-02-20T11:57:37;26.63;;;12.85;;
34499;SDS011;20745;50.882;6.962;2023-02-20T12:02:34;28.33;;;12.30;;
34499;SDS011;20745;50.882;6.962;2023-02-20T12:05:09;26.92;;;11.73;;
34499;SDS011;20745;50.882;6.962;2023-02-20T12:13:10;25.83;;;11.98;;
34499;SDS011;20745;50.882;6.962;2023-02-20T12:15:40;28.77;;;12.07;;
34499;SDS011;20745;50.882;6.962;2023-02-20T12:20:56;26.33;;;11.32;;
34499;SDS011;20745;50.882;6.962;2023-02-20T12:24:26;27.88;;;12.85;;
34499;SDS011;20745;50.882;6.962;2023-02-20T12:26:45;26.40;;;11.50;;
34499;SDS011;20745;50.882;6.962;2023-02-20T12:37:23;24.45;;;11.45;;
34499;SDS011;20745;50.882;6.962;2023-02-20T12:57:07;29.55;;;11.30;;
34499;SDS011;20745;50.882;6.962;2023-02-20T12:59:50;24.73;;;10.55;;
34499;SDS011;20745;50.882;6.962;2023-02-20T13:05:06;27.27;;;11.20;;
34499;SDS011;20745;50.882;6.962;2023-02-20T13:07:38;25.70;;;12.32;;
34499;SDS011;20745;50.882;6.962;2023-02-20T13:10:23;26.25;;;11.75;;
34499;SDS011;20745;50.882;6.962;2023-02-20T13:12:52;31.00;;;13.38;;
34499;SDS011;20745;50.882;6.962;2023-02-20T13:18:16;28.35;;;12.23;;
34499;SDS011;20745;50.882;6.962;2023-02-20T13:20:46;30.17;;;12.68;;
34499;SDS011;20745;50.882;6.962;2023-02-20T13:25:44;31.58;;;12.10;;
34499;SDS011;20745;50.882;6.962;2023-02-20T13:28:25;31.88;;;13.85;;
34499;SDS011;20745;50.882;6.962;2023-02-20T13:31:07;31.50;;;13.52;;
34499;SDS011;20745;50.882;6.962;2023-02-20T13:33:35;30.70;;;13.48;;
34499;SDS011;20745;50.882;6.962;2023-02-20T13:36:03;31.33;;;13.32;;
34499;SDS011;20745;50.882;6.962;2023-02-20T13:38:31;32.28;;;13.82;;
34499;SDS011;20745;50.882;6.962;2023-02-20T13:41:02;30.20;;;12.80;;
34499;SDS011;20745;50.882;6.962;2023-02-20T13:43:36;33.13;;;14.13;;
34499;SDS011;20745;50.882;6.962;2023-02-20T13:48:37;31.20;;;12.52;;
34499;SDS011;20745;50.882;6.962;2023-02-20T13:53:48;30.95;;;13.48;;
34499;SDS011;20745;50.882;6.962;2023-02-20T13:56:17;31.67;;;13.43;;
34499;SDS011;20745;50.882;6.962;2023-02-20T13:58:45;32.42;;;13.05;;
34499;SDS011;20745;50.882;6.962;2023-02-20T14:01:12;28.45;;;12.77;;
34499;SDS011;20745;50.882;6.962;2023-02-20T14:03:40;28.13;;;12.23;;
34499;SDS011;20745;50.882;6.962;2023-02-20T14:06:13;30.27;;;12.25;;
34499;SDS011;20745;50.882;6.962;2023-02-20T14:08:45;34.05;;;13.20;;
34499;SDS011;20745;50.882;6.962;2023-02-20T14:11:15;30.95;;;13.25;;
34499;SDS011;20745;50.882;6.962;2023-02-20T14:13:51;33.00;;;14.23;;
34499;SDS011;20745;50.882;6.962;2023-02-20T14:16:25;31.38;;;13.13;;
34499;SDS011;20745;50.882;6.962;2023-02-20T14:18:59;30.38;;;13.10;;
34499;SDS011;20745;50.882;6.962;2023-02-20T14:21:33;35.97;;;14.57;;
34499;SDS011;20745;50.882;6.962;2023-02-20T14:24:16;30.63;;;12.80;;
34499;SDS011;20745;50.882;6.962;2023-02-20T14:26:46;29.23;;;13.07;;
34499;SDS011;20745;50.882;6.962;2023-02-20T14:29:24;30.38;;;13.80;;
34499;SDS011;20745;50.882;6.962;2023-02-20T14:31:51;35.40;;;14.18;;
34499;SDS011;20745;50.882;6.962;2023-02-20T14:34:28;31.83;;;13.98;;
34499;SDS011;20745;50.882;6.962;2023-02-20T14:37:10;31.95;;;14.02;;
34499;SDS011;20745;50.882;6.962;2023-02-20T14:39:48;33.20;;;13.82;;
34499;SDS011;20745;50.882;6.962;2023-02-20T14:42:18;34.97;;;13.38;;
34499;SDS011;20745;50.882;6.962;2023-02-20T14:44:50;37.97;;;15.60;;
34499;SDS011;20745;50.882;6.962;2023-02-20T14:47:23;38.85;;;14.40;;
34499;SDS011;20745;50.882;6.962;2023-02-20T14:49:50;30.33;;;13.50;;
34499;SDS011;20745;50.882;6.962;2023-02-20T14:52:23;34.67;;;13.75;;
34499;SDS011;20745;50.882;6.962;2023-02-20T14:55:00;35.13;;;14.77;;
34499;SDS011;20745;50.882;6.962;2023-02-20T14:57:31;37.40;;;14.00;;
34499;SDS011;20745;50.882;6.962;2023-02-20T15:00:08;29.85;;;12.15;;
34499;SDS011;20745;50.882;6.962;2023-02-20T15:02:56;29.92;;;11.95;;
34499;SDS011;20745;50.882;6.962;2023-02-20T15:05:32;30.35;;;12.52;;
34499;SDS011;20745;50.882;6.962;2023-02-20T15:10:44;30.42;;;12.35;;
34499;SDS011;20745;50.882;6.962;2023-02-20T15:13:15;28.38;;;11.95;;
34499;SDS011;20745;50.882;6.962;2023-02-20T15:15:45;27.65;;;11.55;;
34499;SDS011;20745;50.882;6.962;2023-02-20T15:18:15;31.88;;;12.55;;
34499;SDS011;20745;50.882;6.962;2023-02-20T15:20:55;30.80;;;12.68;;
34499;SDS011;20745;50.882;6.962;2023-02-20T15:23:34;31.83;;;12.10;;
34499;SDS011;20745;50.882;6.962;2023-02-20T15:26:25;27.60;;;11.75;;
34499;SDS011;20745;50.882;6.962;2023-02-20T15:29:09;27.10;;;12.00;;
34499;SDS011;20745;50.882;6.962;2023-02-20T15:31:54;26.92;;;11.40;;
34499;SDS011;20745;50.882;6.962;2023-02-20T15:34:29;27.77;;;11.55;;
34499;SDS011;20745;50.882;6.962;2023-02-20T15:37:00;28.02;;;11.05;;
34499;SDS011;20745;50.882;6.962;2023-02-20T15:39:42;29.35;;;11.88;;
34499;SDS011;20745;50.882;6.962;2023-02-20T15:42:10;30.52;;;12.45;;
34499;SDS011;20745;50.882;6.962;2023-02-20T15:44:37;25.98;;;12.30;;
34499;SDS011;20745;50.882;6.962;2023-02-20T15:47:04;26.00;;;12.20;;
34499;SDS011;20745;50.882;6.962;2023-02-20T15:49:30;28.70;;;12.88;;
34499;SDS011;20745;50.882;6.962;2023-02-20T15:51:57;28.42;;;12.77;;
34499;SDS011;20745;50.882;6.962;2023-02-20T15:54:34;26.33;;;10.77;;
34499;SDS011;20745;50.882;6.962;2023-02-20T15:57:01;25.65;;;11.13;;
34499;SDS011;20745;50.882;6.962;2023-02-20T15:59:27;25.08;;;10.88;;
34499;SDS011;20745;50.882;6.962;2023-02-20T16:01:54;24.20;;;10.75;;
34499;SDS011;20745;50.882;6.962;2023-02-20T16:04:21;27.48;;;10.20;;
34499;SDS011;20745;50.882;6.962;2023-02-20T16:06:47;23.23;;;10.55;;
34499;SDS011;20745;50.882;6.962;2023-02-20T16:09:14;27.88;;;10.45;;
34499;SDS011;20745;50.882;6.962;2023-02-20T16:11:41;25.10;;;10.40;;
34499;SDS011;20745;50.882;6.962;2023-02-20T16:14:14;23.80;;;10.57;;
34499;SDS011;20745;50.882;6.962;2023-02-20T16:16:42;25.13;;;10.43;;
34499;SDS011;20745;50.882;6.962;2023-02-20T16:19:14;26.30;;;11.70;;
34499;SDS011;20745;50.882;6.962;2023-02-20T16:21:42;23.75;;;10.80;;
34499;SDS011;20745;50.882;6.962;2023-02-20T16:24:23;24.88;;;10.52;;
34499;SDS011;20745;50.882;6.962;2023-02-20T16:26:50;27.48;;;11.05;;
34499;SDS011;20745;50.882;6.962;2023-02-20T16:29:18;23.13;;;10.25;;
34499;SDS011;20745;50.882;6.962;2023-02-20T16:34:26;27.15;;;11.60;;
34499;SDS011;20745;50.882;6.962;2023-02-20T16:36:56;25.48;;;10.90;;
34499;SDS011;20745;50.882;6.962;2023-02-20T16:39:23;25.73;;;11.45;;
34499;SDS011;20745;50.882;6.962;2023-02-20T16:41:53;28.05;;;11.45;;
34499;SDS011;20745;50.882;6.962;2023-02-20T16:44:23;25.45;;;10.50;;